createdAt,value
2019-06-26T00:00:31.224Z,11.40
2019-06-26T00:03:01.340Z,11.33
2019-06-26T00:05:32.281Z,11.80
2019-06-26T00:08:02.804Z,12.15
2019-06-26T00:10:33.338Z,12.05
2019-06-26T00:13:03.656Z,12.45
2019-06-26T00:15:34.190Z,12.95
2019-06-26T00:18:04.719Z,13.10
2019-06-26T00:20:35.038Z,13.00
2019-06-26T00:23:05.576Z,13.85
2019-06-26T00:25:35.905Z,13.72
2019-06-26T00:28:06.418Z,13.30
2019-06-26T00:30:36.745Z,13.85
2019-06-26T00:33:07.071Z,14.53
2019-06-26T00:35:37.280Z,14.03
2019-06-26T00:38:07.919Z,13.58
2019-06-26T00:40:38.245Z,13.98
2019-06-26T00:43:08.569Z,13.95
2019-06-26T00:45:39.325Z,14.25
2019-06-26T00:48:10.037Z,14.45
2019-06-26T00:50:40.357Z,13.50
2019-06-26T00:53:10.889Z,13.72
2019-06-26T00:55:41.418Z,13.62
2019-06-26T00:58:11.533Z,13.20
2019-06-26T01:00:48.023Z,13.40
2019-06-26T01:03:18.940Z,12.95
2019-06-26T01:05:49.470Z,13.13
2019-06-26T01:08:19.587Z,12.85
2019-06-26T01:10:50.120Z,12.43
2019-06-26T01:13:20.849Z,12.53
2019-06-26T01:15:51.382Z,13.00
2019-06-26T01:18:22.309Z,12.80
2019-06-26T01:20:52.643Z,12.70
2019-06-26T01:23:23.174Z,12.15
2019-06-26T01:25:53.491Z,13.05
2019-06-26T01:28:23.866Z,12.73
2019-06-26T01:30:54.142Z,12.78
2019-06-26T01:33:24.468Z,12.25
2019-06-26T01:35:54.991Z,12.50
2019-06-26T01:38:25.111Z,12.63
2019-06-26T01:40:55.639Z,12.05
2019-06-26T01:43:25.965Z,12.50
2019-06-26T01:45:56.491Z,12.65
2019-06-26T01:48:27.024Z,12.85
2019-06-26T01:50:57.961Z,12.98
2019-06-26T01:53:28.491Z,12.50
2019-06-26T01:55:58.815Z,13.95
2019-06-26T01:58:29.139Z,13.75
2019-06-26T02:00:59.462Z,13.18
2019-06-26T02:03:30.400Z,13.90
2019-06-26T02:06:00.631Z,13.40
2019-06-26T02:08:31.262Z,13.25
2019-06-26T02:11:01.574Z,13.43
2019-06-26T02:13:31.898Z,14.03
2019-06-26T02:16:02.224Z,14.35
2019-06-26T02:18:43.193Z,14.10
2019-06-26T02:21:13.522Z,14.73
2019-06-26T02:23:44.049Z,13.65
2019-06-26T02:26:14.371Z,13.48
2019-06-26T02:28:44.694Z,13.95
2019-06-26T02:31:15.024Z,14.43
2019-06-26T02:33:45.349Z,14.90
2019-06-26T02:36:15.670Z,14.68
2019-06-26T02:38:45.996Z,14.40
2019-06-26T02:41:16.316Z,14.47
2019-06-26T02:43:46.848Z,14.55
2019-06-26T02:46:17.165Z,14.78
2019-06-26T02:48:47.492Z,15.23
2019-06-26T02:51:17.813Z,14.43
2019-06-26T02:53:48.346Z,15.03
2019-06-26T02:56:18.670Z,14.93
2019-06-26T02:58:49.193Z,14.90
2019-06-26T03:01:19.519Z,14.90
2019-06-26T03:03:50.051Z,15.30
2019-06-26T03:06:20.375Z,14.65
2019-06-26T03:08:50.697Z,14.60
2019-06-26T03:11:22.250Z,14.63
2019-06-26T03:13:52.981Z,15.10
2019-06-26T03:16:23.303Z,16.12
2019-06-26T03:18:53.629Z,15.45
2019-06-26T03:21:24.367Z,15.13
2019-06-26T03:23:54.894Z,16.25
2019-06-26T03:26:25.212Z,15.80
2019-06-26T03:28:55.745Z,17.15
2019-06-26T03:31:26.066Z,17.23
2019-06-26T03:33:56.393Z,18.55
2019-06-26T03:36:26.922Z,16.87
2019-06-26T03:38:57.865Z,16.77
2019-06-26T03:41:28.183Z,16.57
2019-06-26T03:43:58.299Z,18.27
2019-06-26T03:46:28.622Z,17.73
2019-06-26T03:48:59.359Z,16.40
2019-06-26T03:51:29.680Z,15.53
2019-06-26T03:54:00.421Z,13.75
2019-06-26T03:56:30.945Z,15.23
2019-06-26T03:59:01.474Z,15.58
2019-06-26T04:01:31.799Z,14.58
2019-06-26T04:04:02.345Z,14.10
2019-06-26T04:06:32.648Z,13.18
2019-06-26T04:09:02.974Z,13.32
2019-06-26T04:11:33.299Z,13.95
2019-06-26T04:14:03.621Z,14.35
2019-06-26T04:16:34.172Z,13.53
2019-06-26T04:19:04.737Z,13.70
2019-06-26T04:21:35.207Z,15.03
2019-06-26T04:24:05.527Z,13.50
2019-06-26T04:26:35.854Z,13.00
2019-06-26T04:29:06.005Z,13.70
2019-06-26T04:31:36.703Z,13.50
2019-06-26T04:34:07.027Z,12.93
2019-06-26T04:36:38.170Z,13.70
2019-06-26T04:39:08.702Z,13.08
2019-06-26T04:41:39.026Z,13.22
2019-06-26T04:44:09.565Z,14.15
2019-06-26T04:46:39.875Z,13.05
2019-06-26T04:49:10.905Z,13.08
2019-06-26T04:51:41.137Z,15.05
2019-06-26T04:54:11.461Z,14.15
2019-06-26T04:56:41.989Z,13.75
2019-06-26T04:59:13.953Z,13.65
2019-06-26T05:01:45.923Z,13.43
2019-06-26T05:04:16.445Z,13.68
2019-06-26T05:06:46.970Z,14.47
2019-06-26T05:09:18.512Z,14.23
2019-06-26T05:11:49.667Z,13.30
2019-06-26T05:14:20.402Z,14.40
2019-06-26T05:16:50.929Z,14.10
2019-06-26T05:19:21.031Z,14.40
2019-06-26T05:21:51.986Z,14.53
2019-06-26T05:24:22.515Z,13.85
2019-06-26T05:26:52.840Z,14.18
2019-06-26T05:29:23.165Z,15.43
2019-06-26T05:31:53.485Z,15.32
2019-06-26T05:34:25.465Z,13.98
2019-06-26T05:36:55.975Z,14.85
2019-06-26T05:39:27.737Z,15.45
2019-06-26T05:41:58.266Z,14.87
2019-06-26T05:44:28.813Z,14.40
2019-06-26T05:46:59.531Z,15.30
2019-06-26T05:49:29.848Z,15.18
2019-06-26T05:52:02.067Z,14.65
2019-06-26T05:54:31.935Z,15.60
2019-06-26T05:57:02.252Z,15.00
2019-06-26T05:59:32.576Z,14.87
2019-06-26T06:02:03.124Z,15.63
2019-06-26T06:04:33.634Z,15.90
2019-06-26T06:07:04.162Z,15.88
2019-06-26T06:09:34.494Z,16.02
2019-06-26T06:12:05.427Z,15.35
2019-06-26T06:14:35.543Z,15.43
2019-06-26T06:17:05.872Z,15.18
2019-06-26T06:19:36.236Z,15.98
2019-06-26T06:22:06.515Z,15.35
2019-06-26T06:24:37.042Z,15.65
2019-06-26T06:27:07.373Z,15.08
2019-06-26T06:29:37.681Z,15.90
2019-06-26T06:32:08.222Z,15.38
2019-06-26T06:34:39.159Z,16.48
2019-06-26T06:37:09.696Z,16.23
2019-06-26T06:39:40.068Z,14.70
2019-06-26T06:42:10.951Z,16.20
2019-06-26T06:44:41.274Z,15.53
2019-06-26T06:47:11.804Z,15.65
2019-06-26T06:49:42.124Z,24.55
2019-06-26T06:52:12.452Z,18.15
2019-06-26T06:54:42.976Z,15.38
2019-06-26T06:57:13.511Z,16.12
2019-06-26T06:59:43.828Z,15.53
2019-06-26T07:02:14.162Z,15.60
2019-06-26T07:04:44.695Z,16.23
2019-06-26T07:07:15.008Z,15.70
2019-06-26T07:09:45.334Z,15.95
2019-06-26T07:12:15.651Z,15.30
2019-06-26T07:14:46.196Z,15.70
2019-06-26T07:17:20.990Z,15.08
2019-06-26T07:19:48.357Z,15.13
2019-06-26T07:22:19.201Z,15.58
2019-06-26T07:24:49.319Z,14.68
2019-06-26T07:27:19.853Z,15.45
2019-06-26T07:29:50.219Z,15.30
2019-06-26T07:32:20.909Z,15.35
2019-06-26T07:34:51.229Z,15.48
2019-06-26T07:37:21.552Z,14.60
2019-06-26T07:39:51.882Z,14.73
2019-06-26T07:42:22.205Z,15.55
2019-06-26T07:44:52.524Z,15.25
2019-06-26T07:47:32.566Z,15.38
2019-06-26T07:49:55.017Z,14.98
2019-06-26T07:52:25.346Z,15.23
2019-06-26T07:54:56.489Z,17.80
2019-06-26T07:57:27.020Z,15.08
2019-06-26T07:59:57.336Z,16.10
2019-06-26T08:02:28.209Z,16.23
2019-06-26T08:04:59.012Z,15.15
2019-06-26T08:07:29.334Z,14.38
2019-06-26T08:09:59.657Z,14.33
2019-06-26T08:12:30.186Z,13.58
2019-06-26T08:15:00.510Z,13.85
2019-06-26T08:17:31.236Z,13.18
2019-06-26T08:20:01.364Z,14.65
2019-06-26T08:22:32.099Z,15.05
2019-06-26T08:25:02.421Z,14.47
2019-06-26T08:27:32.740Z,14.50
2019-06-26T08:30:03.071Z,14.25
2019-06-26T08:32:33.596Z,15.48
2019-06-26T08:35:05.195Z,14.18
2019-06-26T08:37:35.672Z,14.75
2019-06-26T08:40:09.641Z,13.60
2019-06-26T08:42:40.010Z,13.05
2019-06-26T08:45:10.444Z,12.65
2019-06-26T08:47:40.879Z,12.55
2019-06-26T08:50:12.866Z,12.45
2019-06-26T08:52:43.353Z,12.30
2019-06-26T08:55:15.522Z,12.88
2019-06-26T08:57:46.046Z,11.78
2019-06-26T09:00:18.043Z,11.40
2019-06-26T09:02:48.948Z,12.33
2019-06-26T09:05:19.278Z,10.98
2019-06-26T09:07:49.638Z,10.25
2019-06-26T09:10:20.122Z,10.72
2019-06-26T09:12:50.449Z,9.98
2019-06-26T09:15:20.670Z,10.13
2019-06-26T09:17:51.514Z,10.03
2019-06-26T09:20:27.769Z,10.40
2019-06-26T09:22:58.089Z,10.55
2019-06-26T09:25:29.031Z,9.98
2019-06-26T09:27:59.549Z,10.32
2019-06-26T09:30:30.136Z,10.30
2019-06-26T09:33:00.413Z,10.25
2019-06-26T09:35:31.349Z,9.70
2019-06-26T09:38:01.470Z,9.30
2019-06-26T09:40:32.201Z,9.23
2019-06-26T09:43:03.551Z,9.00
2019-06-26T09:45:34.076Z,9.38
2019-06-26T09:48:04.609Z,8.88
2019-06-26T09:50:35.133Z,9.23
2019-06-26T09:53:05.692Z,9.10
2019-06-26T09:55:36.191Z,9.55
2019-06-26T09:58:06.514Z,9.10
2019-06-26T10:00:37.864Z,9.20
2019-06-26T10:03:08.189Z,10.00
2019-06-26T10:05:38.511Z,9.93
2019-06-26T10:08:08.833Z,10.15
2019-06-26T10:10:39.786Z,10.75
2019-06-26T10:13:10.100Z,10.48
2019-06-26T10:15:41.033Z,10.53
2019-06-26T10:18:11.379Z,10.98
2019-06-26T10:20:41.685Z,11.22
2019-06-26T10:23:12.004Z,10.68
2019-06-26T10:25:42.328Z,11.00
2019-06-26T10:28:12.663Z,10.93
2019-06-26T10:30:42.980Z,11.00
2019-06-26T10:33:13.508Z,11.38
2019-06-26T10:35:44.446Z,11.33
2019-06-26T10:38:14.975Z,10.65
2019-06-26T10:40:45.501Z,11.03
2019-06-26T10:43:16.029Z,11.57
2019-06-26T10:45:46.561Z,11.35
2019-06-26T10:48:16.892Z,11.20
2019-06-26T10:50:51.068Z,10.45
2019-06-26T10:53:19.167Z,10.53
2019-06-26T10:55:50.113Z,10.50
2019-06-26T10:58:20.637Z,11.20
2019-06-26T11:00:51.777Z,11.15
2019-06-26T11:03:22.756Z,11.03
2019-06-26T11:05:53.454Z,11.20
2019-06-26T11:08:23.982Z,10.90
2019-06-26T11:10:54.510Z,10.18
2019-06-26T11:13:24.829Z,10.60
2019-06-26T11:15:55.973Z,10.95
2019-06-26T11:18:26.095Z,11.20
2019-06-26T11:20:56.421Z,10.38
2019-06-26T11:23:26.739Z,11.22
2019-06-26T11:25:57.289Z,10.03
2019-06-26T11:28:28.207Z,10.40
2019-06-26T11:30:58.740Z,9.43
2019-06-26T11:33:28.861Z,9.80
2019-06-26T11:35:59.179Z,9.45
2019-06-26T11:38:29.295Z,9.23
2019-06-26T11:41:01.938Z,9.55
2019-06-26T11:43:31.589Z,8.45
2019-06-26T11:46:01.914Z,9.00
2019-06-26T11:48:32.437Z,8.93
2019-06-26T11:51:02.761Z,8.58
2019-06-26T11:53:33.292Z,9.40
2019-06-26T11:56:03.638Z,8.80
2019-06-26T11:58:33.945Z,8.30
2019-06-26T12:01:04.463Z,8.55
2019-06-26T12:03:34.785Z,8.05
2019-06-26T12:06:17.815Z,8.20
2019-06-26T12:08:37.485Z,8.05
2019-06-26T12:11:08.014Z,8.30
2019-06-26T12:13:38.336Z,8.05
2019-06-26T12:16:08.660Z,8.40
2019-06-26T12:18:39.595Z,8.15
2019-06-26T12:21:10.129Z,8.10
2019-06-26T12:23:40.653Z,9.50
2019-06-26T12:26:11.394Z,9.33
2019-06-26T12:28:41.918Z,9.28
2019-06-26T12:31:12.242Z,10.43
2019-06-26T12:33:42.772Z,9.50
2019-06-26T12:36:13.300Z,9.18
2019-06-26T12:38:43.625Z,10.68
2019-06-26T12:41:13.744Z,10.28
2019-06-26T12:43:44.062Z,10.40
2019-06-26T12:46:17.949Z,10.23
2019-06-26T12:48:46.347Z,9.60
2019-06-26T12:51:16.881Z,9.90
2019-06-26T12:53:47.416Z,9.45
2019-06-26T12:56:17.733Z,10.03
2019-06-26T12:58:48.263Z,10.60
2019-06-26T13:01:18.787Z,9.10
2019-06-26T13:03:49.322Z,9.60
2019-06-26T13:06:20.259Z,9.55
2019-06-26T13:08:50.782Z,10.65
2019-06-26T13:11:21.109Z,10.55
2019-06-26T13:14:02.205Z,10.23
2019-06-26T13:16:28.724Z,10.03
2019-06-26T13:18:59.288Z,10.58
2019-06-26T13:21:29.777Z,9.60
2019-06-26T13:24:00.121Z,10.78
2019-06-26T13:26:30.379Z,10.13
2019-06-26T13:29:00.746Z,10.35
2019-06-26T13:31:31.069Z,10.53
2019-06-26T13:34:01.652Z,10.58
2019-06-26T13:36:32.191Z,10.85
2019-06-26T13:39:09.416Z,10.88
2019-06-26T13:41:39.945Z,11.45
2019-06-26T13:44:10.477Z,10.40
2019-06-26T13:46:41.409Z,10.75
2019-06-26T13:49:12.347Z,11.25
2019-06-26T13:51:42.670Z,11.48
2019-06-26T13:54:12.998Z,11.90
2019-06-26T13:56:43.731Z,11.05
2019-06-26T13:59:14.260Z,12.35
2019-06-26T14:01:45.195Z,12.18
2019-06-26T14:04:15.521Z,12.18
2019-06-26T14:06:45.849Z,12.80
2019-06-26T14:09:16.179Z,13.08
2019-06-26T14:11:46.698Z,12.60
2019-06-26T14:14:17.024Z,12.03
2019-06-26T14:16:47.546Z,12.82
2019-06-26T14:19:17.876Z,12.65
2019-06-26T14:21:48.198Z,12.43
2019-06-26T14:24:18.726Z,12.58
2019-06-26T14:26:49.051Z,12.50
2019-06-26T14:29:21.387Z,12.28
2019-06-26T14:31:51.746Z,12.80
2019-06-26T14:34:22.274Z,13.20
2019-06-26T14:36:52.599Z,12.45
2019-06-26T14:39:22.918Z,13.48
2019-06-26T14:41:53.448Z,12.47
2019-06-26T14:44:25.554Z,13.60
2019-06-26T14:46:55.942Z,14.90
2019-06-26T14:49:26.469Z,13.03
2019-06-26T14:51:56.797Z,16.02
2019-06-26T14:54:27.530Z,17.27
2019-06-26T14:56:57.848Z,13.55
2019-06-26T14:59:28.172Z,13.35
2019-06-26T15:01:58.699Z,12.78
2019-06-26T15:04:29.848Z,12.78
2019-06-26T15:07:00.169Z,16.50
2019-06-26T15:09:30.512Z,12.45
2019-06-26T15:12:01.228Z,16.27
2019-06-26T15:14:31.754Z,13.18
2019-06-26T15:17:02.283Z,12.90
2019-06-26T15:19:32.813Z,12.33
2019-06-26T15:22:03.137Z,12.40
2019-06-26T15:24:33.461Z,12.75
2019-06-26T15:27:03.789Z,12.98
2019-06-26T15:29:34.107Z,12.63
2019-06-26T15:32:04.637Z,13.05
2019-06-26T15:34:35.368Z,13.20
2019-06-26T15:37:05.898Z,15.18
2019-06-26T15:39:36.846Z,14.93
2019-06-26T15:42:07.365Z,15.05
2019-06-26T15:44:37.686Z,15.72
2019-06-26T15:47:08.012Z,17.12
2019-06-26T15:49:38.332Z,17.57
2019-06-26T15:52:14.848Z,17.30
2019-06-26T15:54:40.827Z,16.70
2019-06-26T15:57:11.142Z,17.27
2019-06-26T15:59:41.474Z,16.57
2019-06-26T16:02:12.202Z,16.17
2019-06-26T16:04:42.736Z,16.02
2019-06-26T16:07:13.060Z,16.65
2019-06-26T16:09:43.383Z,16.07
2019-06-26T16:12:13.703Z,16.57
2019-06-26T16:14:44.236Z,16.90
2019-06-26T16:17:16.195Z,16.07
2019-06-26T16:19:46.729Z,16.45
2019-06-26T16:22:30.884Z,17.27
2019-06-26T16:24:48.804Z,16.07
2019-06-26T16:27:19.128Z,17.32
2019-06-26T16:29:49.661Z,16.57
2019-06-26T16:32:20.598Z,16.95
2019-06-26T16:34:50.918Z,16.65
2019-06-26T16:37:21.245Z,17.57
2019-06-26T16:39:51.770Z,17.32
2019-06-26T16:42:22.302Z,21.75
2019-06-26T16:44:53.032Z,16.12
2019-06-26T16:47:23.356Z,16.42
2019-06-26T16:49:53.679Z,17.23
2019-06-26T16:52:24.008Z,17.60
2019-06-26T16:54:54.327Z,16.00
2019-06-26T16:57:24.857Z,16.32
2019-06-26T17:00:09.046Z,15.85
2019-06-26T17:02:27.555Z,15.63
2019-06-26T17:04:58.071Z,16.17
2019-06-26T17:07:28.613Z,16.55
2019-06-26T17:09:59.333Z,15.53
2019-06-26T17:12:29.669Z,15.85
2019-06-26T17:15:03.221Z,15.85
2019-06-26T17:17:31.764Z,15.80
2019-06-26T17:20:02.277Z,16.23
2019-06-26T17:22:32.589Z,15.45
2019-06-26T17:25:03.128Z,15.98
2019-06-26T17:27:33.454Z,16.15
2019-06-26T17:30:06.032Z,15.70
2019-06-26T17:32:36.352Z,15.75
2019-06-26T17:35:08.119Z,16.20
2019-06-26T17:37:38.847Z,16.52
2019-06-26T17:40:10.196Z,16.45
2019-06-26T17:42:40.719Z,15.65
2019-06-26T17:45:22.619Z,16.67
2019-06-26T17:47:53.040Z,15.93
2019-06-26T17:50:23.371Z,16.23
2019-06-26T17:52:53.488Z,16.45
2019-06-26T17:55:23.602Z,15.55
2019-06-26T17:57:54.142Z,16.23
2019-06-26T18:00:27.325Z,15.28
2019-06-26T18:02:57.739Z,15.85
2019-06-26T18:05:28.378Z,16.27
2019-06-26T18:07:59.115Z,15.70
2019-06-26T18:10:29.265Z,16.05
2019-06-26T18:12:59.763Z,16.07
2019-06-26T18:15:30.302Z,16.77
2019-06-26T18:18:00.821Z,16.35
2019-06-26T18:20:31.142Z,16.55
2019-06-26T18:23:07.267Z,17.15
2019-06-26T18:25:34.861Z,15.78
2019-06-26T18:28:05.806Z,16.45
2019-06-26T18:30:36.533Z,16.48
2019-06-26T18:33:06.532Z,16.37
2019-06-26T18:35:36.368Z,17.77
2019-06-26T18:38:06.239Z,18.00
2019-06-26T18:40:36.586Z,17.92
2019-06-26T18:43:07.091Z,18.95
2019-06-26T18:45:37.022Z,21.40
2019-06-26T18:48:06.921Z,22.02
2019-06-26T18:50:36.911Z,21.48
2019-06-26T18:53:06.959Z,20.62
2019-06-26T18:55:36.957Z,20.12
2019-06-26T18:58:07.034Z,18.62
2019-06-26T19:00:38.052Z,17.73
2019-06-26T19:03:08.019Z,13.25
2019-06-26T19:05:38.017Z,13.00
2019-06-26T19:08:08.035Z,12.55
2019-06-26T19:10:37.990Z,18.20
2019-06-26T19:13:08.355Z,12.55
2019-06-26T19:15:38.676Z,11.60
2019-06-26T19:18:09.201Z,11.97
2019-06-26T19:20:39.734Z,11.73
2019-06-26T19:23:10.058Z,11.50
2019-06-26T19:25:40.151Z,12.05
2019-06-26T19:28:10.138Z,11.95
2019-06-26T19:30:40.415Z,10.23
2019-06-26T19:33:10.772Z,10.50
2019-06-26T19:35:41.308Z,11.40
2019-06-26T19:38:11.997Z,9.93
2019-06-26T19:40:43.123Z,9.98
2019-06-26T19:43:13.073Z,9.45
2019-06-26T19:45:43.582Z,9.90
2019-06-26T19:48:14.209Z,9.90
2019-06-26T19:50:45.262Z,9.35
2019-06-26T19:53:15.581Z,10.38
2019-06-26T19:55:46.110Z,11.33
2019-06-26T19:58:16.225Z,11.45
2019-06-26T20:00:47.782Z,12.47
2019-06-26T20:03:18.102Z,11.80
2019-06-26T20:05:48.420Z,16.20
2019-06-26T20:08:18.753Z,15.05
2019-06-26T20:10:49.072Z,14.75
2019-06-26T20:13:19.606Z,15.93
2019-06-26T20:15:49.932Z,15.05
2019-06-26T20:18:20.267Z,14.90
2019-06-26T20:20:56.925Z,15.75
2019-06-26T20:23:27.495Z,14.35
2019-06-26T20:25:58.392Z,13.58
2019-06-26T20:28:28.716Z,13.20
2019-06-26T20:30:59.449Z,13.53
2019-06-26T20:33:30.178Z,13.83
2019-06-26T20:36:00.708Z,13.30
2019-06-26T20:38:33.083Z,14.05
2019-06-26T20:41:03.608Z,13.78
2019-06-26T20:43:34.137Z,14.53
2019-06-26T20:46:04.464Z,14.38
2019-06-26T20:48:37.861Z,14.35
2019-06-26T20:51:08.389Z,14.18
2019-06-26T20:53:38.708Z,14.70
2019-06-26T20:56:09.790Z,14.40
2019-06-26T20:58:43.650Z,14.33
2019-06-26T21:01:13.984Z,14.13
2019-06-26T21:03:45.813Z,14.45
2019-06-26T21:06:16.014Z,14.05
2019-06-26T21:08:46.180Z,14.13
2019-06-26T21:11:16.917Z,12.82
2019-06-26T21:13:49.759Z,13.18
2019-06-26T21:16:20.433Z,12.55
2019-06-26T21:18:50.753Z,12.78
2019-06-26T21:21:43.609Z,13.08
2019-06-26T21:24:14.211Z,13.55
2019-06-26T21:26:46.509Z,14.23
2019-06-26T21:29:17.647Z,14.80
2019-06-26T21:31:48.179Z,16.00
2019-06-26T21:34:18.709Z,14.53
2019-06-26T21:36:49.655Z,12.58
2019-06-26T21:39:20.182Z,11.48
2019-06-26T21:41:50.699Z,11.25
2019-06-26T21:44:21.028Z,11.10
2019-06-26T21:46:51.348Z,11.45
2019-06-26T21:49:21.876Z,10.38
2019-06-26T21:51:52.406Z,11.08
2019-06-26T21:54:22.733Z,10.98
2019-06-26T21:56:53.058Z,11.08
2019-06-26T21:59:23.786Z,10.38
2019-06-26T22:01:54.326Z,10.08
2019-06-26T22:04:24.847Z,10.25
2019-06-26T22:06:55.195Z,10.13
2019-06-26T22:09:25.700Z,10.90
2019-06-26T22:11:56.019Z,12.63
2019-06-26T22:14:26.349Z,11.28
2019-06-26T22:16:57.081Z,11.10
2019-06-26T22:19:27.608Z,10.00
2019-06-26T22:21:57.929Z,9.90
2019-06-26T22:24:28.456Z,9.38
2019-06-26T22:26:59.194Z,9.63
2019-06-26T22:29:29.725Z,10.08
2019-06-26T22:32:00.044Z,9.28
2019-06-26T22:34:30.796Z,9.30
2019-06-26T22:37:01.919Z,8.80
2019-06-26T22:39:32.234Z,9.00
2019-06-26T22:42:02.567Z,9.45
2019-06-26T22:44:33.095Z,9.60
2019-06-26T22:47:03.628Z,9.18
2019-06-26T22:49:34.157Z,9.00
2019-06-26T22:52:04.685Z,9.95
2019-06-26T22:54:35.219Z,9.43
2019-06-26T22:57:05.739Z,9.08
2019-06-26T22:59:36.271Z,9.78
2019-06-26T23:02:07.060Z,9.90
2019-06-26T23:04:37.723Z,9.75
2019-06-26T23:07:08.048Z,9.53
2019-06-26T23:09:38.593Z,9.68
2019-06-26T23:12:09.115Z,9.43
2019-06-26T23:14:39.647Z,9.35
2019-06-26T23:17:10.176Z,9.10
2019-06-26T23:19:40.502Z,9.43
2019-06-26T23:22:11.423Z,9.93
2019-06-26T23:24:41.762Z,9.60
2019-06-26T23:27:12.290Z,9.50
2019-06-26T23:29:42.611Z,10.13
2019-06-26T23:32:13.143Z,9.00
2019-06-26T23:34:43.667Z,9.50
2019-06-26T23:37:13.888Z,9.65
2019-06-26T23:39:45.962Z,9.58
2019-06-26T23:42:16.281Z,10.03
2019-06-26T23:44:46.805Z,9.53
2019-06-26T23:47:17.839Z,9.00
2019-06-26T23:49:48.275Z,9.30
2019-06-26T23:52:18.596Z,9.53
2019-06-26T23:54:48.715Z,9.23
2019-06-26T23:57:19.244Z,9.55
2019-06-26T23:59:49.367Z,9.50
